sensor_id;sensor_type;location;lat;lon;timestamp;pressure;altitude;pressure_sealevel;temperature;humidity
75627;BME280;67372;49.404;11.034;2023-10-08T00:00:37;98749.63;;;17.00;56.20
75627;BME280;67372;49.404;11.034;2023-10-08T00:03:03;98742.03;;;16.97;56.37
75627;BME280;67372;49.404;11.034;2023-10-08T00:05:35;98741.47;;;16.95;55.13
75627;BME280;67372;49.404;11.034;2023-10-08T00:08:02;98743.09;;;16.96;56.12
75627;BME280;67372;49.404;11.034;2023-10-08T00:10:28;98744.50;;;16.98;55.79
75627;BME280;67372;49.404;11.034;2023-10-08T00:12:55;98742.13;;;17.02;55.30
75627;BME280;67372;49.404;11.034;2023-10-08T00:15:21;98743.13;;;17.12;54.45
75627;BME280;67372;49.404;11.034;2023-10-08T00:17:47;98744.00;;;17.18;54.88
75627;BME280;67372;49.404;11.034;2023-10-08T00:20:14;98749.47;;;17.23;54.21
75627;BME280;67372;49.404;11.034;2023-10-08T00:22:40;98733.63;;;17.27;54.51
75627;BME280;67372;49.404;11.034;2023-10-08T00:25:07;98739.63;;;17.29;54.27
75627;BME280;67372;49.404;11.034;2023-10-08T00:27:33;98728.06;;;17.33;53.90
75627;BME280;67372;49.404;11.034;2023-10-08T00:30:00;98737.81;;;17.34;53.83
75627;BME280;67372;49.404;11.034;2023-10-08T00:32:26;98744.31;;;17.38;53.53
75627;BME280;67372;49.404;11.034;2023-10-08T00:34:53;98746.28;;;17.43;53.97
75627;BME280;67372;49.404;11.034;2023-10-08T00:37:19;98738.81;;;17.50;53.49
75627;BME280;67372;49.404;11.034;2023-10-08T00:39:46;98738.81;;;17.50;53.69
75627;BME280;67372;49.404;11.034;2023-10-08T00:42:12;98736.72;;;17.52;53.83
75627;BME280;67372;49.404;11.034;2023-10-08T00:44:38;98735.56;;;17.48;53.41
75627;BME280;67372;49.404;11.034;2023-10-08T00:47:05;98733.22;;;17.52;53.81
75627;BME280;67372;49.404;11.034;2023-10-08T00:49:31;98737.53;;;17.53;53.81
75627;BME280;67372;49.404;11.034;2023-10-08T00:51:59;98751.28;;;17.51;53.75
75627;BME280;67372;49.404;11.034;2023-10-08T00:54:28;98752.31;;;17.50;53.88
75627;BME280;67372;49.404;11.034;2023-10-08T00:56:54;98759.19;;;17.41;53.54
75627;BME280;67372;49.404;11.034;2023-10-08T00:59:20;98753.25;;;17.39;54.13
75627;BME280;67372;49.404;11.034;2023-10-08T01:01:48;98754.06;;;17.39;54.21
75627;BME280;67372;49.404;11.034;2023-10-08T01:04:18;98758.56;;;17.34;54.42
75627;BME280;67372;49.404;11.034;2023-10-08T01:06:46;98766.09;;;17.32;54.26
75627;BME280;67372;49.404;11.034;2023-10-08T01:09:12;98756.44;;;17.36;54.49
75627;BME280;67372;49.404;11.034;2023-10-08T01:11:39;98762.06;;;17.34;54.60
75627;BME280;67372;49.404;11.034;2023-10-08T01:14:05;98762.31;;;17.33;54.99
75627;BME280;67372;49.404;11.034;2023-10-08T01:16:31;98753.91;;;17.29;55.07
75627;BME280;67372;49.404;11.034;2023-10-08T01:18:58;98754.63;;;17.25;55.24
75627;BME280;67372;49.404;11.034;2023-10-08T01:21:28;98757.25;;;17.19;55.27
75627;BME280;67372;49.404;11.034;2023-10-08T01:23:55;98753.41;;;17.15;55.63
75627;BME280;67372;49.404;11.034;2023-10-08T01:26:21;98755.47;;;17.08;55.44
75627;BME280;67372;49.404;11.034;2023-10-08T01:28:47;98748.94;;;17.04;55.75
75627;BME280;67372;49.404;11.034;2023-10-08T01:31:14;98748.00;;;16.99;55.91
75627;BME280;67372;49.404;11.034;2023-10-08T01:33:40;98750.06;;;16.92;56.36
75627;BME280;67372;49.404;11.034;2023-10-08T01:36:07;98749.06;;;16.81;56.67
75627;BME280;67372;49.404;11.034;2023-10-08T01:38:33;98749.44;;;16.73;56.53
75627;BME280;67372;49.404;11.034;2023-10-08T01:40:59;98756.13;;;16.70;57.02
75627;BME280;67372;49.404;11.034;2023-10-08T01:43:26;98752.88;;;16.68;57.21
75627;BME280;67372;49.404;11.034;2023-10-08T01:45:52;98744.66;;;16.63;57.20
75627;BME280;67372;49.404;11.034;2023-10-08T01:48:19;98750.53;;;16.60;57.50
75627;BME280;67372;49.404;11.034;2023-10-08T01:50:46;98741.28;;;16.56;57.54
75627;BME280;67372;49.404;11.034;2023-10-08T01:53:14;98746.59;;;16.51;57.96
75627;BME280;67372;49.404;11.034;2023-10-08T01:55:40;98745.94;;;16.44;58.02
75627;BME280;67372;49.404;11.034;2023-10-08T01:58:07;98744.53;;;16.41;58.38
75627;BME280;67372;49.404;11.034;2023-10-08T02:00:33;98736.94;;;16.38;58.35
75627;BME280;67372;49.404;11.034;2023-10-08T02:02:59;98739.88;;;16.37;58.11
75627;BME280;67372;49.404;11.034;2023-10-08T02:05:26;98741.50;;;16.38;58.59
75627;BME280;67372;49.404;11.034;2023-10-08T02:07:53;98740.69;;;16.37;58.60
75627;BME280;67372;49.404;11.034;2023-10-08T02:10:19;98738.25;;;16.36;58.92
75627;BME280;67372;49.404;11.034;2023-10-08T02:12:45;98737.88;;;16.32;59.07
75627;BME280;67372;49.404;11.034;2023-10-08T02:15:12;98745.88;;;16.27;59.25
75627;BME280;67372;49.404;11.034;2023-10-08T02:17:38;98743.31;;;16.20;59.20
75627;BME280;67372;49.404;11.034;2023-10-08T02:20:05;98740.03;;;16.18;59.52
75627;BME280;67372;49.404;11.034;2023-10-08T02:22:32;98741.34;;;16.16;59.94
75627;BME280;67372;49.404;11.034;2023-10-08T02:24:59;98741.91;;;16.18;60.00
75627;BME280;67372;49.404;11.034;2023-10-08T02:27:25;98741.34;;;16.16;60.36
75627;BME280;67372;49.404;11.034;2023-10-08T02:29:52;98737.50;;;16.12;60.10
75627;BME280;67372;49.404;11.034;2023-10-08T02:32:18;98740.66;;;16.09;59.94
75627;BME280;67372;49.404;11.034;2023-10-08T02:34:45;98740.66;;;16.09;60.56
75627;BME280;67372;49.404;11.034;2023-10-08T02:37:11;98745.22;;;16.08;60.68
75627;BME280;67372;49.404;11.034;2023-10-08T02:39:37;98749.78;;;16.08;60.86
75627;BME280;67372;49.404;11.034;2023-10-08T02:42:04;98750.25;;;16.05;60.63
75627;BME280;67372;49.404;11.034;2023-10-08T02:44:30;98758.81;;;16.02;61.05
75627;BME280;67372;49.404;11.034;2023-10-08T02:46:57;98754.72;;;15.99;60.84
75627;BME280;67372;49.404;11.034;2023-10-08T02:49:23;98754.72;;;15.99;61.28
75627;BME280;67372;49.404;11.034;2023-10-08T02:51:52;98755.78;;;15.98;61.47
75627;BME280;67372;49.404;11.034;2023-10-08T02:54:19;98760.81;;;15.94;61.25
75627;BME280;67372;49.404;11.034;2023-10-08T02:56:50;98758.38;;;15.93;61.98
75627;BME280;67372;49.404;11.034;2023-10-08T02:59:18;98773.69;;;15.92;61.40
75627;BME280;67372;49.404;11.034;2023-10-08T03:01:44;98779.91;;;15.93;61.95
75627;BME280;67372;49.404;11.034;2023-10-08T03:04:11;98777.22;;;15.93;61.71
75627;BME280;67372;49.404;11.034;2023-10-08T03:06:37;98771.81;;;15.93;62.04
75627;BME280;67372;49.404;11.034;2023-10-08T03:09:03;98769.63;;;15.90;61.70
75627;BME280;67372;49.404;11.034;2023-10-08T03:11:30;98773.84;;;15.86;62.26
75627;BME280;67372;49.404;11.034;2023-10-08T03:13:57;98772.41;;;15.83;62.70
75627;BME280;67372;49.404;11.034;2023-10-08T03:16:23;98759.91;;;15.77;62.71
75627;BME280;67372;49.404;11.034;2023-10-08T03:18:50;98769.28;;;15.75;63.06
75627;BME280;67372;49.404;11.034;2023-10-08T03:21:16;98778.41;;;15.74;62.93
75627;BME280;67372;49.404;11.034;2023-10-08T03:23:43;98768.69;;;15.73;62.98
75627;BME280;67372;49.404;11.034;2023-10-08T03:26:09;98781.31;;;15.72;62.65
75627;BME280;67372;49.404;11.034;2023-10-08T03:28:36;98785.88;;;15.72;63.20
75627;BME280;67372;49.404;11.034;2023-10-08T03:31:06;98806.59;;;15.71;62.82
75627;BME280;67372;49.404;11.034;2023-10-08T03:33:34;98810.09;;;15.72;63.58
75627;BME280;67372;49.404;11.034;2023-10-08T03:36:03;98803.66;;;15.73;63.24
75627;BME280;67372;49.404;11.034;2023-10-08T03:38:29;98803.19;;;15.76;63.23
75627;BME280;67372;49.404;11.034;2023-10-08T03:40:56;98803.53;;;15.79;63.30
75627;BME280;67372;49.404;11.034;2023-10-08T03:43:23;98806.81;;;15.81;63.20
75627;BME280;67372;49.404;11.034;2023-10-08T03:45:49;98807.38;;;15.83;63.20
75627;BME280;67372;49.404;11.034;2023-10-08T03:48:16;98801.75;;;15.85;63.39
75627;BME280;67372;49.404;11.034;2023-10-08T03:50:42;98799.69;;;15.87;63.49
75627;BME280;67372;49.404;11.034;2023-10-08T03:53:09;98809.16;;;15.89;63.15
75627;BME280;67372;49.404;11.034;2023-10-08T03:55:35;98801.09;;;15.89;63.33
75627;BME280;67372;49.404;11.034;2023-10-08T03:58:02;98804.59;;;15.90;62.97
75627;BME280;67372;49.404;11.034;2023-10-08T04:00:28;98811.59;;;15.91;63.42
75627;BME280;67372;49.404;11.034;2023-10-08T04:02:55;98801.91;;;15.90;63.67
75627;BME280;67372;49.404;11.034;2023-10-08T04:05:22;98794.53;;;15.85;63.71
75627;BME280;67372;49.404;11.034;2023-10-08T04:07:49;98803.44;;;15.86;63.79
75627;BME280;67372;49.404;11.034;2023-10-08T04:10:15;98808.81;;;15.86;63.74
75627;BME280;67372;49.404;11.034;2023-10-08T04:12:41;98815.81;;;15.87;63.50
75627;BME280;67372;49.404;11.034;2023-10-08T04:15:08;98819.34;;;15.87;63.54
75627;BME280;67372;49.404;11.034;2023-10-08T04:17:35;98821.22;;;15.87;63.71
75627;BME280;67372;49.404;11.034;2023-10-08T04:20:01;98819.34;;;15.87;64.11
75627;BME280;67372;49.404;11.034;2023-10-08T04:22:28;98825.78;;;15.86;63.57
75627;BME280;67372;49.404;11.034;2023-10-08T04:24:54;98832.41;;;15.84;63.74
75627;BME280;67372;49.404;11.034;2023-10-08T04:27:20;98826.94;;;15.79;63.58
75627;BME280;67372;49.404;11.034;2023-10-08T04:29:47;98846.47;;;15.74;63.73
75627;BME280;67372;49.404;11.034;2023-10-08T04:32:13;98844.94;;;15.67;64.24
75627;BME280;67372;49.404;11.034;2023-10-08T04:34:40;98836.97;;;15.60;64.47
75627;BME280;67372;49.404;11.034;2023-10-08T04:37:06;98835.78;;;15.56;64.18
75627;BME280;67372;49.404;11.034;2023-10-08T04:39:32;98835.41;;;15.52;64.57
75627;BME280;67372;49.404;11.034;2023-10-08T04:41:59;98827.00;;;15.49;64.51
75627;BME280;67372;49.404;11.034;2023-10-08T04:44:26;98830.16;;;15.46;65.17
75627;BME280;67372;49.404;11.034;2023-10-08T04:46:52;98833.56;;;15.41;64.95
75627;BME280;67372;49.404;11.034;2023-10-08T04:49:19;98827.34;;;15.41;65.06
75627;BME280;67372;49.404;11.034;2023-10-08T04:51:46;98822.41;;;15.38;65.01
75627;BME280;67372;49.404;11.034;2023-10-08T04:54:12;98821.59;;;15.37;65.29
75627;BME280;67372;49.404;11.034;2023-10-08T04:56:38;98823.47;;;15.36;64.94
75627;BME280;67372;49.404;11.034;2023-10-08T04:59:05;98815.63;;;15.35;65.25
75627;BME280;67372;49.404;11.034;2023-10-08T05:01:31;98823.69;;;15.35;65.53
75627;BME280;67372;49.404;11.034;2023-10-08T05:03:58;98823.47;;;15.36;65.78
75627;BME280;67372;49.404;11.034;2023-10-08T05:06:26;98826.16;;;15.36;65.25
75627;BME280;67372;49.404;11.034;2023-10-08T05:08:53;98827.78;;;15.38;65.39
75627;BME280;67372;49.404;11.034;2023-10-08T05:11:19;98812.72;;;15.36;65.78
75627;BME280;67372;49.404;11.034;2023-10-08T05:13:46;98812.13;;;15.34;65.86
75627;BME280;67372;49.404;11.034;2023-10-08T05:16:12;98821.84;;;15.35;65.56
75627;BME280;67372;49.404;11.034;2023-10-08T05:18:39;98820.19;;;15.34;66.14
75627;BME280;67372;49.404;11.034;2023-10-08T05:21:05;98820.19;;;15.34;65.73
75627;BME280;67372;49.404;11.034;2023-10-08T05:23:33;98805.13;;;15.33;65.91
75627;BME280;67372;49.404;11.034;2023-10-08T05:26:00;98802.66;;;15.32;65.90
75627;BME280;67372;49.404;11.034;2023-10-08T05:28:29;98802.91;;;15.30;65.75
75627;BME280;67372;49.404;11.034;2023-10-08T05:30:55;98805.81;;;15.29;66.30
75627;BME280;67372;49.404;11.034;2023-10-08T05:33:22;98798.00;;;15.27;66.14
75627;BME280;67372;49.404;11.034;2023-10-08T05:35:48;98799.63;;;15.28;66.42
75627;BME280;67372;49.404;11.034;2023-10-08T05:38:19;98802.31;;;15.28;66.61
75627;BME280;67372;49.404;11.034;2023-10-08T05:40:46;98795.31;;;15.27;66.84
75627;BME280;67372;49.404;11.034;2023-10-08T05:43:12;98798.00;;;15.27;66.63
75627;BME280;67372;49.404;11.034;2023-10-08T05:45:38;98796.13;;;15.28;67.07
75627;BME280;67372;49.404;11.034;2023-10-08T05:48:05;98794.47;;;15.27;67.22
75627;BME280;67372;49.404;11.034;2023-10-08T05:50:31;98801.50;;;15.28;67.00
75627;BME280;67372;49.404;11.034;2023-10-08T05:52:58;98795.88;;;15.29;66.86
75627;BME280;67372;49.404;11.034;2023-10-08T05:55:25;98799.38;;;15.30;67.61
75627;BME280;67372;49.404;11.034;2023-10-08T05:57:58;98794.84;;;15.30;67.87
75627;BME280;67372;49.404;11.034;2023-10-08T06:00:25;98788.16;;;15.33;67.81
75627;BME280;67372;49.404;11.034;2023-10-08T06:02:51;98789.34;;;15.37;67.95
75627;BME280;67372;49.404;11.034;2023-10-08T06:05:18;98784.94;;;15.43;67.79
75627;BME280;67372;49.404;11.034;2023-10-08T06:07:53;98788.31;;;15.50;68.08
75627;BME280;67372;49.404;11.034;2023-10-08T06:10:28;98787.13;;;15.57;67.58
75627;BME280;67372;49.404;11.034;2023-10-08T06:13:13;98778.41;;;15.62;67.41
75627;BME280;67372;49.404;11.034;2023-10-08T06:15:45;98786.59;;;15.67;67.67
75627;BME280;67372;49.404;11.034;2023-10-08T06:18:11;98794.78;;;15.72;67.04
75627;BME280;67372;49.404;11.034;2023-10-08T06:20:38;98810.53;;;15.80;67.18
75627;BME280;67372;49.404;11.034;2023-10-08T06:23:05;98815.81;;;15.87;67.10
75627;BME280;67372;49.404;11.034;2023-10-08T06:25:31;98817.81;;;15.91;66.85
75627;BME280;67372;49.404;11.034;2023-10-08T06:27:57;98806.47;;;15.89;67.12
75627;BME280;67372;49.404;11.034;2023-10-08T06:30:25;98808.69;;;15.92;67.78
75627;BME280;67372;49.404;11.034;2023-10-08T06:32:51;98810.41;;;15.99;68.55
75627;BME280;67372;49.404;11.034;2023-10-08T06:35:18;98810.63;;;16.09;67.30
75627;BME280;67372;49.404;11.034;2023-10-08T06:37:45;98816.16;;;16.14;67.06
75627;BME280;67372;49.404;11.034;2023-10-08T06:40:12;98811.09;;;16.17;66.85
75627;BME280;67372;49.404;11.034;2023-10-08T06:42:38;98819.66;;;16.14;66.88
75627;BME280;67372;49.404;11.034;2023-10-08T06:45:05;98825.13;;;16.19;66.93
75627;BME280;67372;49.404;11.034;2023-10-08T06:47:31;98830.38;;;16.26;66.64
75627;BME280;67372;49.404;11.034;2023-10-08T06:49:58;98831.78;;;16.28;66.53
75627;BME280;67372;49.404;11.034;2023-10-08T06:52:24;98822.19;;;16.33;66.50
75627;BME280;67372;49.404;11.034;2023-10-08T06:54:51;98819.25;;;16.34;66.83
75627;BME280;67372;49.404;11.034;2023-10-08T06:57:17;98817.97;;;16.37;66.40
75627;BME280;67372;49.404;11.034;2023-10-08T06:59:43;98806.72;;;16.40;66.51
75627;BME280;67372;49.404;11.034;2023-10-08T07:02:10;98813.72;;;16.41;66.73
75627;BME280;67372;49.404;11.034;2023-10-08T07:04:36;98824.34;;;16.47;66.59
75627;BME280;67372;49.404;11.034;2023-10-08T07:07:03;98832.78;;;16.51;66.13
75627;BME280;67372;49.404;11.034;2023-10-08T07:09:29;98838.63;;;16.60;66.07
75627;BME280;67372;49.404;11.034;2023-10-08T07:11:57;98842.47;;;16.64;65.85
75627;BME280;67372;49.404;11.034;2023-10-08T07:14:27;98844.00;;;16.71;65.42
75627;BME280;67372;49.404;11.034;2023-10-08T07:16:56;98850.41;;;16.82;65.36
75627;BME280;67372;49.404;11.034;2023-10-08T07:19:23;98845.69;;;16.89;65.40
75627;BME280;67372;49.404;11.034;2023-10-08T07:21:50;98855.00;;;16.98;65.35
75627;BME280;67372;49.404;11.034;2023-10-08T07:24:17;98857.91;;;17.08;65.29
75627;BME280;67372;49.404;11.034;2023-10-08T07:26:44;98873.53;;;17.23;64.67
75627;BME280;67372;49.404;11.034;2023-10-08T07:29:10;98869.47;;;17.37;64.13
75627;BME280;67372;49.404;11.034;2023-10-08T07:31:38;98872.75;;;17.39;63.76
75627;BME280;67372;49.404;11.034;2023-10-08T07:34:04;98877.47;;;17.49;63.62
75627;BME280;67372;49.404;11.034;2023-10-08T07:36:31;98885.69;;;17.54;63.59
75627;BME280;67372;49.404;11.034;2023-10-08T07:38:57;98891.66;;;17.56;63.46
75627;BME280;67372;49.404;11.034;2023-10-08T07:41:24;98899.50;;;17.58;63.47
75627;BME280;67372;49.404;11.034;2023-10-08T07:43:50;98893.13;;;17.64;62.94
75627;BME280;67372;49.404;11.034;2023-10-08T07:46:16;98901.06;;;17.70;62.72
75627;BME280;67372;49.404;11.034;2023-10-08T07:48:43;98905.91;;;17.68;62.82
75627;BME280;67372;49.404;11.034;2023-10-08T07:51:09;98909.50;;;17.74;62.43
75627;BME280;67372;49.404;11.034;2023-10-08T07:53:36;98908.25;;;17.65;62.69
75627;BME280;67372;49.404;11.034;2023-10-08T07:56:06;98900.81;;;17.72;63.03
75627;BME280;67372;49.404;11.034;2023-10-08T07:58:33;98908.59;;;17.85;62.47
75627;BME280;67372;49.404;11.034;2023-10-08T08:01:03;98904.53;;;17.99;61.50
75627;BME280;67372;49.404;11.034;2023-10-08T08:03:29;98912.13;;;18.02;61.63
75627;BME280;67372;49.404;11.034;2023-10-08T08:05:56;98917.78;;;18.01;62.02
75627;BME280;67372;49.404;11.034;2023-10-08T08:08:22;98935.75;;;18.12;61.43
75627;BME280;67372;49.404;11.034;2023-10-08T08:10:49;98939.91;;;18.20;61.22
75627;BME280;67372;49.404;11.034;2023-10-08T08:13:15;98948.19;;;18.30;60.94
75627;BME280;67372;49.404;11.034;2023-10-08T08:15:42;98957.09;;;18.30;60.76
75627;BME280;67372;49.404;11.034;2023-10-08T08:18:11;98954.22;;;18.37;60.60
75627;BME280;67372;49.404;11.034;2023-10-08T08:20:38;98953.66;;;18.35;60.80
75627;BME280;67372;49.404;11.034;2023-10-08T08:23:05;98944.16;;;18.16;61.13
75627;BME280;67372;49.404;11.034;2023-10-08T08:25:41;98943.69;;;18.19;61.64
75627;BME280;67372;49.404;11.034;2023-10-08T08:28:07;98941.16;;;18.29;61.56
75627;BME280;67372;49.404;11.034;2023-10-08T08:30:34;98946.13;;;18.20;61.79
75627;BME280;67372;49.404;11.034;2023-10-08T08:33:00;98940.97;;;18.19;61.32
75627;BME280;67372;49.404;11.034;2023-10-08T08:35:27;98940.25;;;18.23;61.84
75627;BME280;67372;49.404;11.034;2023-10-08T08:37:53;98941.22;;;18.34;61.81
75627;BME280;67372;49.404;11.034;2023-10-08T08:40:20;98946.84;;;18.49;61.49
75627;BME280;67372;49.404;11.034;2023-10-08T08:42:49;98929.78;;;18.65;60.80
75627;BME280;67372;49.404;11.034;2023-10-08T08:45:19;98917.03;;;18.83;59.96
75627;BME280;67372;49.404;11.034;2023-10-08T08:47:46;98918.41;;;18.85;60.11
75627;BME280;67372;49.404;11.034;2023-10-08T08:50:12;98926.91;;;18.94;60.47
75627;BME280;67372;49.404;11.034;2023-10-08T08:52:40;98918.91;;;19.04;60.24
75627;BME280;67372;49.404;11.034;2023-10-08T08:55:08;98905.84;;;19.23;59.36
75627;BME280;67372;49.404;11.034;2023-10-08T08:57:34;98908.13;;;19.36;58.44
75627;BME280;67372;49.404;11.034;2023-10-08T09:00:01;98906.16;;;19.26;58.70
75627;BME280;67372;49.404;11.034;2023-10-08T09:02:27;98905.00;;;19.17;58.67
75627;BME280;67372;49.404;11.034;2023-10-08T09:04:54;98899.09;;;18.98;59.22
75627;BME280;67372;49.404;11.034;2023-10-08T09:07:21;98881.16;;;18.92;59.44
75627;BME280;67372;49.404;11.034;2023-10-08T09:09:48;98881.13;;;18.87;60.09
75627;BME280;67372;49.404;11.034;2023-10-08T09:12:18;98882.00;;;18.93;59.33
75627;BME280;67372;49.404;11.034;2023-10-08T09:14:46;98882.63;;;18.78;59.95
75627;BME280;67372;49.404;11.034;2023-10-08T09:17:12;98883.00;;;18.87;59.85
75627;BME280;67372;49.404;11.034;2023-10-08T09:19:38;98896.56;;;18.92;59.55
75627;BME280;67372;49.404;11.034;2023-10-08T09:22:07;98897.28;;;18.82;60.22
75627;BME280;67372;49.404;11.034;2023-10-08T09:24:34;98897.53;;;18.81;60.00
75627;BME280;67372;49.404;11.034;2023-10-08T09:27:01;98905.91;;;18.79;60.25
75627;BME280;67372;49.404;11.034;2023-10-08T09:29:28;98915.94;;;18.84;60.13
75627;BME280;67372;49.404;11.034;2023-10-08T09:31:58;98928.66;;;18.83;60.40
75627;BME280;67372;49.404;11.034;2023-10-08T09:34:28;98933.00;;;18.84;60.40
75627;BME280;67372;49.404;11.034;2023-10-08T09:36:58;98942.38;;;18.77;60.74
75627;BME280;67372;49.404;11.034;2023-10-08T09:39:26;98958.97;;;18.85;60.29
75627;BME280;67372;49.404;11.034;2023-10-08T09:41:56;98960.97;;;18.73;61.07
75627;BME280;67372;49.404;11.034;2023-10-08T09:44:24;98965.13;;;18.81;60.71
75627;BME280;67372;49.404;11.034;2023-10-08T09:47:04;98964.69;;;18.89;60.06
75627;BME280;67372;49.404;11.034;2023-10-08T09:49:41;98959.25;;;19.11;59.90
75627;BME280;67372;49.404;11.034;2023-10-08T09:52:10;98963.78;;;19.27;59.01
75627;BME280;67372;49.404;11.034;2023-10-08T09:54:44;98958.91;;;19.51;58.40
75627;BME280;67372;49.404;11.034;2023-10-08T09:57:11;98961.94;;;19.86;57.15
75627;BME280;67372;49.404;11.034;2023-10-08T09:59:37;98963.06;;;19.58;57.70
75627;BME280;67372;49.404;11.034;2023-10-08T10:02:04;98974.00;;;19.69;57.79
75627;BME280;67372;49.404;11.034;2023-10-08T10:04:31;98974.00;;;19.69;57.91
75627;BME280;67372;49.404;11.034;2023-10-08T10:06:58;98968.47;;;19.58;57.85
75627;BME280;67372;49.404;11.034;2023-10-08T10:09:25;98984.28;;;19.67;57.42
75627;BME280;67372;49.404;11.034;2023-10-08T10:11:54;98981.00;;;19.65;57.76
75627;BME280;67372;49.404;11.034;2023-10-08T10:14:24;98990.50;;;19.67;57.89
75627;BME280;67372;49.404;11.034;2023-10-08T10:17:15;98990.63;;;19.55;58.63
75627;BME280;67372;49.404;11.034;2023-10-08T10:20:05;98991.06;;;19.69;57.73
75627;BME280;67372;49.404;11.034;2023-10-08T10:22:34;98981.00;;;19.65;57.98
75627;BME280;67372;49.404;11.034;2023-10-08T10:25:04;98987.97;;;19.60;58.26
75627;BME280;67372;49.404;11.034;2023-10-08T10:27:35;98978.91;;;19.72;57.76
75627;BME280;67372;49.404;11.034;2023-10-08T10:30:03;98984.06;;;19.73;57.77
75627;BME280;67372;49.404;11.034;2023-10-08T10:32:30;98982.56;;;19.60;58.31
75627;BME280;67372;49.404;11.034;2023-10-08T10:34:56;98986.84;;;19.56;58.50
75627;BME280;67372;49.404;11.034;2023-10-08T10:37:23;98980.38;;;19.57;58.38
75627;BME280;67372;49.404;11.034;2023-10-08T10:39:56;98971.13;;;19.53;59.21
75627;BME280;67372;49.404;11.034;2023-10-08T10:42:22;98970.72;;;19.67;58.74
75627;BME280;67372;49.404;11.034;2023-10-08T10:44:49;98961.53;;;19.68;58.69
75627;BME280;67372;49.404;11.034;2023-10-08T10:47:18;98962.41;;;19.73;58.94
75627;BME280;67372;49.404;11.034;2023-10-08T10:49:46;98964.03;;;19.74;59.01
75627;BME280;67372;49.404;11.034;2023-10-08T10:52:14;98947.31;;;19.82;58.49
75627;BME280;67372;49.404;11.034;2023-10-08T10:54:41;98945.38;;;19.78;58.38
75627;BME280;67372;49.404;11.034;2023-10-08T10:57:07;98950.25;;;19.81;57.18
75627;BME280;67372;49.404;11.034;2023-10-08T10:59:33;98975.25;;;19.61;58.18
75627;BME280;67372;49.404;11.034;2023-10-08T11:02:00;98975.47;;;19.32;59.54
75627;BME280;67372;49.404;11.034;2023-10-08T11:04:26;98991.19;;;19.36;59.52
75627;BME280;67372;49.404;11.034;2023-10-08T11:06:53;98981.19;;;19.36;59.59
75627;BME280;67372;49.404;11.034;2023-10-08T11:09:19;98984.78;;;19.42;59.54
75627;BME280;67372;49.404;11.034;2023-10-08T11:11:47;98988.94;;;19.27;59.90
75627;BME280;67372;49.404;11.034;2023-10-08T11:14:15;98987.53;;;19.20;60.25
75627;BME280;67372;49.404;11.034;2023-10-08T11:16:42;98999.72;;;19.22;60.69
75627;BME280;67372;49.404;11.034;2023-10-08T11:19:09;99004.50;;;19.15;60.75
75627;BME280;67372;49.404;11.034;2023-10-08T11:21:48;98995.91;;;19.18;60.84
75627;BME280;67372;49.404;11.034;2023-10-08T11:24:27;98984.78;;;19.42;60.01
75627;BME280;67372;49.404;11.034;2023-10-08T11:26:53;98964.38;;;19.56;59.58
75627;BME280;67372;49.404;11.034;2023-10-08T11:29:20;98944.38;;;19.57;59.70
75627;BME280;67372;49.404;11.034;2023-10-08T11:31:46;98955.38;;;19.77;58.57
75627;BME280;67372;49.404;11.034;2023-10-08T11:34:13;98966.25;;;19.82;58.61
75627;BME280;67372;49.404;11.034;2023-10-08T11:36:40;98960.69;;;19.94;57.53
75627;BME280;67372;49.404;11.034;2023-10-08T11:39:11;98960.16;;;19.97;57.97
75627;BME280;67372;49.404;11.034;2023-10-08T11:41:38;98973.78;;;19.75;58.88
75627;BME280;67372;49.404;11.034;2023-10-08T11:44:04;98973.03;;;19.85;58.25
75627;BME280;67372;49.404;11.034;2023-10-08T11:46:31;98977.59;;;19.79;58.54
75627;BME280;67372;49.404;11.034;2023-10-08T11:48:59;98994.38;;;19.76;58.45
75627;BME280;67372;49.404;11.034;2023-10-08T11:51:25;98993.91;;;19.84;58.36
75627;BME280;67372;49.404;11.034;2023-10-08T11:53:55;98997.78;;;19.93;58.18
75627;BME280;67372;49.404;11.034;2023-10-08T11:56:22;99012.16;;;19.94;58.43
75627;BME280;67372;49.404;11.034;2023-10-08T11:58:49;99012.97;;;19.95;58.80
75627;BME280;67372;49.404;11.034;2023-10-08T12:01:15;99024.94;;;19.72;59.27
75627;BME280;67372;49.404;11.034;2023-10-08T12:03:42;99021.63;;;19.65;59.84
75627;BME280;67372;49.404;11.034;2023-10-08T12:06:12;99017.38;;;19.74;59.40
75627;BME280;67372;49.404;11.034;2023-10-08T12:08:39;99009.75;;;19.98;58.76
75627;BME280;67372;49.404;11.034;2023-10-08T12:11:05;99015.44;;;20.01;58.70
75627;BME280;67372;49.404;11.034;2023-10-08T12:13:32;99006.09;;;20.14;58.36
75627;BME280;67372;49.404;11.034;2023-10-08T12:15:58;99008.91;;;20.29;57.54
75627;BME280;67372;49.404;11.034;2023-10-08T12:18:25;98998.97;;;20.08;58.11
75627;BME280;67372;49.404;11.034;2023-10-08T12:20:52;98998.25;;;20.17;57.69
75627;BME280;67372;49.404;11.034;2023-10-08T12:23:18;98984.97;;;20.16;58.05
75627;BME280;67372;49.404;11.034;2023-10-08T12:25:45;98982.47;;;20.09;58.63
75627;BME280;67372;49.404;11.034;2023-10-08T12:28:11;98974.34;;;20.09;59.02
75627;BME280;67372;49.404;11.034;2023-10-08T12:30:38;98974.78;;;19.96;59.06
75627;BME280;67372;49.404;11.034;2023-10-08T12:33:04;98980.19;;;19.96;59.22
75627;BME280;67372;49.404;11.034;2023-10-08T12:35:31;98973.16;;;19.95;59.09
75627;BME280;67372;49.404;11.034;2023-10-08T12:37:57;98976.75;;;20.06;58.45
75627;BME280;67372;49.404;11.034;2023-10-08T12:40:24;98971.00;;;19.97;58.86
75627;BME280;67372;49.404;11.034;2023-10-08T12:42:53;98994.22;;;19.88;59.04
75627;BME280;67372;49.404;11.034;2023-10-08T12:45:20;99003.50;;;19.97;58.81
75627;BME280;67372;49.404;11.034;2023-10-08T12:47:50;98995.75;;;19.79;59.23
75627;BME280;67372;49.404;11.034;2023-10-08T12:50:18;98996.19;;;19.66;59.70